sensor_id;sensor_type;location;lat;lon;timestamp;temperature;humidity
10133;DHT22;5106;50.926;7.080;2023-05-19T00:01:07;10.20;78.40
10133;DHT22;5106;50.926;7.080;2023-05-19T00:03:34;10.10;78.40
10133;DHT22;5106;50.926;7.080;2023-05-19T00:06:02;10.10;78.40
10133;DHT22;5106;50.926;7.080;2023-05-19T00:08:33;10.00;78.60
10133;DHT22;5106;50.926;7.080;2023-05-19T00:10:59;10.00;79.00
10133;DHT22;5106;50.926;7.080;2023-05-19T00:13:26;9.90;78.90
10133;DHT22;5106;50.926;7.080;2023-05-19T00:15:52;9.90;79.10
10133;DHT22;5106;50.926;7.080;2023-05-19T00:18:18;9.90;79.20
10133;DHT22;5106;50.926;7.080;2023-05-19T00:20:43;9.90;79.20
10133;DHT22;5106;50.926;7.080;2023-05-19T00:23:10;9.90;79.60
10133;DHT22;5106;50.926;7.080;2023-05-19T00:25:35;9.80;79.60
10133;DHT22;5106;50.926;7.080;2023-05-19T00:28:01;9.80;79.30
10133;DHT22;5106;50.926;7.080;2023-05-19T00:30:28;9.80;79.60
10133;DHT22;5106;50.926;7.080;2023-05-19T00:32:54;9.80;79.60
10133;DHT22;5106;50.926;7.080;2023-05-19T00:35:21;9.70;79.30
10133;DHT22;5106;50.926;7.080;2023-05-19T00:37:47;9.60;79.20
10133;DHT22;5106;50.926;7.080;2023-05-19T00:40:13;9.50;79.60
10133;DHT22;5106;50.926;7.080;2023-05-19T00:42:40;9.50;79.60
10133;DHT22;5106;50.926;7.080;2023-05-19T00:45:06;9.40;79.70
10133;DHT22;5106;50.926;7.080;2023-05-19T00:47:32;9.40;79.80
10133;DHT22;5106;50.926;7.080;2023-05-19T00:49:58;9.40;79.80
10133;DHT22;5106;50.926;7.080;2023-05-19T00:52:25;9.40;79.90
10133;DHT22;5106;50.926;7.080;2023-05-19T00:54:52;9.30;79.80
10133;DHT22;5106;50.926;7.080;2023-05-19T00:57:18;9.30;80.10
10133;DHT22;5106;50.926;7.080;2023-05-19T00:59:45;9.30;80.20
10133;DHT22;5106;50.926;7.080;2023-05-19T01:02:11;9.20;80.00
10133;DHT22;5106;50.926;7.080;2023-05-19T01:04:39;9.20;80.30
10133;DHT22;5106;50.926;7.080;2023-05-19T01:07:06;9.10;80.30
10133;DHT22;5106;50.926;7.080;2023-05-19T01:09:32;9.10;80.40
10133;DHT22;5106;50.926;7.080;2023-05-19T01:11:59;9.10;80.60
10133;DHT22;5106;50.926;7.080;2023-05-19T01:14:25;9.10;80.60
10133;DHT22;5106;50.926;7.080;2023-05-19T01:22:11;8.90;80.60
10133;DHT22;5106;50.926;7.080;2023-05-19T01:24:56;8.90;80.70
10133;DHT22;5106;50.926;7.080;2023-05-19T01:27:53;8.80;80.80
10133;DHT22;5106;50.926;7.080;2023-05-19T01:30:39;8.70;80.90
10133;DHT22;5106;50.926;7.080;2023-05-19T01:33:07;8.70;80.90
10133;DHT22;5106;50.926;7.080;2023-05-19T01:35:37;8.70;81.00
10133;DHT22;5106;50.926;7.080;2023-05-19T01:38:07;8.60;81.00
10133;DHT22;5106;50.926;7.080;2023-05-19T01:40:34;8.60;80.90
10133;DHT22;5106;50.926;7.080;2023-05-19T01:43:01;8.60;81.10
10133;DHT22;5106;50.926;7.080;2023-05-19T01:45:28;8.60;81.00
10133;DHT22;5106;50.926;7.080;2023-05-19T01:47:57;8.50;81.10
10133;DHT22;5106;50.926;7.080;2023-05-19T01:50:23;8.50;81.20
10133;DHT22;5106;50.926;7.080;2023-05-19T01:52:49;8.50;81.30
10133;DHT22;5106;50.926;7.080;2023-05-19T01:55:15;8.50;81.40
10133;DHT22;5106;50.926;7.080;2023-05-19T02:00:51;8.30;81.40
10133;DHT22;5106;50.926;7.080;2023-05-19T02:03:47;8.20;81.40
10133;DHT22;5106;50.926;7.080;2023-05-19T02:09:17;8.10;81.30
10133;DHT22;5106;50.926;7.080;2023-05-19T02:12:36;8.10;81.50
10133;DHT22;5106;50.926;7.080;2023-05-19T02:15:10;8.10;81.60
10133;DHT22;5106;50.926;7.080;2023-05-19T02:17:39;8.10;81.60
10133;DHT22;5106;50.926;7.080;2023-05-19T02:20:07;8.10;81.60
10133;DHT22;5106;50.926;7.080;2023-05-19T02:22:34;8.20;81.60
10133;DHT22;5106;50.926;7.080;2023-05-19T02:25:00;8.10;81.70
10133;DHT22;5106;50.926;7.080;2023-05-19T02:27:25;8.10;81.60
10133;DHT22;5106;50.926;7.080;2023-05-19T02:29:51;8.10;81.70
10133;DHT22;5106;50.926;7.080;2023-05-19T02:32:17;8.10;81.90
10133;DHT22;5106;50.926;7.080;2023-05-19T02:34:43;8.10;82.00
10133;DHT22;5106;50.926;7.080;2023-05-19T02:37:16;8.10;81.80
10133;DHT22;5106;50.926;7.080;2023-05-19T02:39:42;8.10;81.80
10133;DHT22;5106;50.926;7.080;2023-05-19T02:42:08;8.10;81.70
10133;DHT22;5106;50.926;7.080;2023-05-19T02:44:34;8.10;81.60
10133;DHT22;5106;50.926;7.080;2023-05-19T02:46:59;8.10;81.60
10133;DHT22;5106;50.926;7.080;2023-05-19T02:49:26;8.00;81.50
10133;DHT22;5106;50.926;7.080;2023-05-19T02:51:52;8.00;81.50
10133;DHT22;5106;50.926;7.080;2023-05-19T02:54:17;8.00;81.40
10133;DHT22;5106;50.926;7.080;2023-05-19T02:56:43;8.00;81.30
10133;DHT22;5106;50.926;7.080;2023-05-19T02:59:09;7.90;81.10
10133;DHT22;5106;50.926;7.080;2023-05-19T03:01:34;7.80;81.20
10133;DHT22;5106;50.926;7.080;2023-05-19T03:04:01;7.70;81.20
10133;DHT22;5106;50.926;7.080;2023-05-19T03:06:27;7.60;81.10
10133;DHT22;5106;50.926;7.080;2023-05-19T03:08:53;7.60;81.30
10133;DHT22;5106;50.926;7.080;2023-05-19T03:11:19;7.60;81.40
10133;DHT22;5106;50.926;7.080;2023-05-19T03:13:45;7.60;81.40
10133;DHT22;5106;50.926;7.080;2023-05-19T03:16:10;7.60;81.30
10133;DHT22;5106;50.926;7.080;2023-05-19T03:18:36;7.50;81.50
10133;DHT22;5106;50.926;7.080;2023-05-19T03:21:02;7.50;81.50
10133;DHT22;5106;50.926;7.080;2023-05-19T03:23:27;7.40;81.40
10133;DHT22;5106;50.926;7.080;2023-05-19T03:25:53;7.40;81.40
10133;DHT22;5106;50.926;7.080;2023-05-19T03:28:20;7.30;81.40
10133;DHT22;5106;50.926;7.080;2023-05-19T03:30:47;7.20;81.50
10133;DHT22;5106;50.926;7.080;2023-05-19T03:33:15;7.20;81.70
10133;DHT22;5106;50.926;7.080;2023-05-19T03:35:41;7.20;81.80
10133;DHT22;5106;50.926;7.080;2023-05-19T03:38:06;7.10;81.90
10133;DHT22;5106;50.926;7.080;2023-05-19T03:40:32;7.10;82.00
10133;DHT22;5106;50.926;7.080;2023-05-19T03:42:57;7.10;81.90
10133;DHT22;5106;50.926;7.080;2023-05-19T03:45:25;7.10;82.00
10133;DHT22;5106;50.926;7.080;2023-05-19T03:47:50;7.10;82.10
10133;DHT22;5106;50.926;7.080;2023-05-19T03:50:16;7.10;81.90
10133;DHT22;5106;50.926;7.080;2023-05-19T03:52:41;7.10;82.00
10133;DHT22;5106;50.926;7.080;2023-05-19T03:55:09;7.00;82.10
10133;DHT22;5106;50.926;7.080;2023-05-19T03:57:35;7.00;81.90
10133;DHT22;5106;50.926;7.080;2023-05-19T04:00:03;7.00;82.10
10133;DHT22;5106;50.926;7.080;2023-05-19T04:02:29;6.90;82.10
10133;DHT22;5106;50.926;7.080;2023-05-19T04:04:55;6.90;82.10
10133;DHT22;5106;50.926;7.080;2023-05-19T04:07:21;6.90;82.20
10133;DHT22;5106;50.926;7.080;2023-05-19T04:09:48;6.90;82.30
10133;DHT22;5106;50.926;7.080;2023-05-19T04:12:13;6.80;82.20
10133;DHT22;5106;50.926;7.080;2023-05-19T04:14:39;6.80;82.30
10133;DHT22;5106;50.926;7.080;2023-05-19T04:17:04;6.80;82.50
10133;DHT22;5106;50.926;7.080;2023-05-19T04:19:30;6.90;82.70
10133;DHT22;5106;50.926;7.080;2023-05-19T04:21:55;6.90;82.60
10133;DHT22;5106;50.926;7.080;2023-05-19T04:24:21;7.00;82.60
10133;DHT22;5106;50.926;7.080;2023-05-19T04:26:47;7.00;82.50
10133;DHT22;5106;50.926;7.080;2023-05-19T04:29:12;7.00;82.40
10133;DHT22;5106;50.926;7.080;2023-05-19T04:31:42;7.00;82.30
10133;DHT22;5106;50.926;7.080;2023-05-19T04:34:09;7.00;82.30
10133;DHT22;5106;50.926;7.080;2023-05-19T04:36:35;7.00;82.20
10133;DHT22;5106;50.926;7.080;2023-05-19T04:39:01;7.00;82.40
10133;DHT22;5106;50.926;7.080;2023-05-19T04:41:30;7.00;82.50
10133;DHT22;5106;50.926;7.080;2023-05-19T04:43:55;6.90;82.50
10133;DHT22;5106;50.926;7.080;2023-05-19T04:46:22;6.90;82.70
10133;DHT22;5106;50.926;7.080;2023-05-19T04:48:49;7.00;82.90
10133;DHT22;5106;50.926;7.080;2023-05-19T04:51:15;7.00;82.80
10133;DHT22;5106;50.926;7.080;2023-05-19T04:53:42;7.00;82.80
10133;DHT22;5106;50.926;7.080;2023-05-19T04:56:08;7.00;83.00
10133;DHT22;5106;50.926;7.080;2023-05-19T04:58:34;7.10;83.10
10133;DHT22;5106;50.926;7.080;2023-05-19T05:01:00;7.10;83.10
10133;DHT22;5106;50.926;7.080;2023-05-19T05:03:25;7.20;83.30
10133;DHT22;5106;50.926;7.080;2023-05-19T05:05:51;7.20;83.30
10133;DHT22;5106;50.926;7.080;2023-05-19T05:08:17;7.30;83.50
10133;DHT22;5106;50.926;7.080;2023-05-19T05:10:51;7.30;83.50
10133;DHT22;5106;50.926;7.080;2023-05-19T05:13:21;7.40;83.50
10133;DHT22;5106;50.926;7.080;2023-05-19T05:15:48;7.40;83.50
10133;DHT22;5106;50.926;7.080;2023-05-19T05:18:14;7.50;83.60
10133;DHT22;5106;50.926;7.080;2023-05-19T05:20:44;7.50;83.60
10133;DHT22;5106;50.926;7.080;2023-05-19T05:23:10;7.60;83.50
10133;DHT22;5106;50.926;7.080;2023-05-19T05:25:40;7.60;83.60
10133;DHT22;5106;50.926;7.080;2023-05-19T05:28:06;7.70;83.60
10133;DHT22;5106;50.926;7.080;2023-05-19T05:30:33;7.80;83.70
10133;DHT22;5106;50.926;7.080;2023-05-19T05:32:59;7.80;83.70
10133;DHT22;5106;50.926;7.080;2023-05-19T05:35:26;7.90;83.60
10133;DHT22;5106;50.926;7.080;2023-05-19T05:37:53;7.90;83.60
10133;DHT22;5106;50.926;7.080;2023-05-19T05:40:19;8.00;83.60
10133;DHT22;5106;50.926;7.080;2023-05-19T05:42:45;8.00;83.60
10133;DHT22;5106;50.926;7.080;2023-05-19T05:45:10;8.20;83.60
10133;DHT22;5106;50.926;7.080;2023-05-19T05:47:36;8.20;83.40
10133;DHT22;5106;50.926;7.080;2023-05-19T05:50:04;8.30;83.40
10133;DHT22;5106;50.926;7.080;2023-05-19T05:52:31;8.40;83.30
10133;DHT22;5106;50.926;7.080;2023-05-19T05:54:57;8.50;83.30
10133;DHT22;5106;50.926;7.080;2023-05-19T05:57:23;8.60;83.20
10133;DHT22;5106;50.926;7.080;2023-05-19T05:59:48;8.70;82.90
10133;DHT22;5106;50.926;7.080;2023-05-19T06:02:16;8.80;82.70
10133;DHT22;5106;50.926;7.080;2023-05-19T06:04:41;8.90;82.50
10133;DHT22;5106;50.926;7.080;2023-05-19T06:07:08;9.00;82.30
10133;DHT22;5106;50.926;7.080;2023-05-19T06:09:34;9.10;82.10
10133;DHT22;5106;50.926;7.080;2023-05-19T06:11:59;9.10;81.90
10133;DHT22;5106;50.926;7.080;2023-05-19T06:14:25;9.20;81.80
10133;DHT22;5106;50.926;7.080;2023-05-19T06:16:51;9.30;81.70
10133;DHT22;5106;50.926;7.080;2023-05-19T06:19:17;9.40;81.50
10133;DHT22;5106;50.926;7.080;2023-05-19T06:21:44;9.50;81.30
10133;DHT22;5106;50.926;7.080;2023-05-19T06:24:10;9.60;81.10
10133;DHT22;5106;50.926;7.080;2023-05-19T06:26:36;9.70;81.20
10133;DHT22;5106;50.926;7.080;2023-05-19T06:29:01;9.80;80.80
10133;DHT22;5106;50.926;7.080;2023-05-19T06:31:28;9.80;80.70
10133;DHT22;5106;50.926;7.080;2023-05-19T06:33:53;9.90;80.30
10133;DHT22;5106;50.926;7.080;2023-05-19T06:36:19;10.00;79.30
10133;DHT22;5106;50.926;7.080;2023-05-19T06:38:45;10.10;78.80
10133;DHT22;5106;50.926;7.080;2023-05-19T06:41:11;10.20;78.70
10133;DHT22;5106;50.926;7.080;2023-05-19T06:43:37;10.20;78.70
10133;DHT22;5106;50.926;7.080;2023-05-19T06:46:03;10.30;78.70
10133;DHT22;5106;50.926;7.080;2023-05-19T06:48:29;10.40;78.00
10133;DHT22;5106;50.926;7.080;2023-05-19T06:50:54;10.50;78.00
10133;DHT22;5106;50.926;7.080;2023-05-19T06:53:20;10.60;78.00
10133;DHT22;5106;50.926;7.080;2023-05-19T06:55:46;10.70;78.10
10133;DHT22;5106;50.926;7.080;2023-05-19T06:58:14;10.70;77.80
10133;DHT22;5106;50.926;7.080;2023-05-19T07:00:40;10.80;77.70
10133;DHT22;5106;50.926;7.080;2023-05-19T07:03:06;10.90;77.50
10133;DHT22;5106;50.926;7.080;2023-05-19T07:05:31;11.00;77.50
10133;DHT22;5106;50.926;7.080;2023-05-19T07:07:57;11.20;76.70
10133;DHT22;5106;50.926;7.080;2023-05-19T07:10:23;11.30;75.50
10133;DHT22;5106;50.926;7.080;2023-05-19T07:12:48;11.40;75.40
10133;DHT22;5106;50.926;7.080;2023-05-19T07:15:14;11.50;75.40
10133;DHT22;5106;50.926;7.080;2023-05-19T07:17:40;11.70;75.50
10133;DHT22;5106;50.926;7.080;2023-05-19T07:20:06;11.70;75.80
10133;DHT22;5106;50.926;7.080;2023-05-19T07:22:34;11.80;75.70
10133;DHT22;5106;50.926;7.080;2023-05-19T07:25:00;11.90;75.50
10133;DHT22;5106;50.926;7.080;2023-05-19T07:27:25;12.00;76.30
10133;DHT22;5106;50.926;7.080;2023-05-19T07:29:51;12.10;73.40
10133;DHT22;5106;50.926;7.080;2023-05-19T07:32:17;12.20;74.00
10133;DHT22;5106;50.926;7.080;2023-05-19T07:34:42;12.30;72.90
10133;DHT22;5106;50.926;7.080;2023-05-19T07:37:08;12.40;72.70
10133;DHT22;5106;50.926;7.080;2023-05-19T07:39:34;12.50;73.50
10133;DHT22;5106;50.926;7.080;2023-05-19T07:42:00;12.60;72.20
10133;DHT22;5106;50.926;7.080;2023-05-19T07:44:26;12.70;72.20
10133;DHT22;5106;50.926;7.080;2023-05-19T07:46:52;12.80;72.00
10133;DHT22;5106;50.926;7.080;2023-05-19T07:49:18;12.90;72.50
10133;DHT22;5106;50.926;7.080;2023-05-19T07:51:44;13.00;72.40
10133;DHT22;5106;50.926;7.080;2023-05-19T07:54:09;13.10;72.50
10133;DHT22;5106;50.926;7.080;2023-05-19T07:56:35;13.20;72.50
10133;DHT22;5106;50.926;7.080;2023-05-19T07:59:00;13.30;71.00
10133;DHT22;5106;50.926;7.080;2023-05-19T08:01:26;13.40;70.60
10133;DHT22;5106;50.926;7.080;2023-05-19T08:03:52;13.50;71.80
10133;DHT22;5106;50.926;7.080;2023-05-19T08:06:18;13.60;70.90
10133;DHT22;5106;50.926;7.080;2023-05-19T08:08:43;13.70;71.40
10133;DHT22;5106;50.926;7.080;2023-05-19T08:11:10;13.80;71.20
10133;DHT22;5106;50.926;7.080;2023-05-19T08:13:36;14.00;71.30
10133;DHT22;5106;50.926;7.080;2023-05-19T08:16:01;14.00;69.50
10133;DHT22;5106;50.926;7.080;2023-05-19T08:18:27;14.10;69.10
10133;DHT22;5106;50.926;7.080;2023-05-19T08:20:53;14.30;69.20
10133;DHT22;5106;50.926;7.080;2023-05-19T08:23:18;14.40;69.50
10133;DHT22;5106;50.926;7.080;2023-05-19T08:25:44;14.40;67.20
10133;DHT22;5106;50.926;7.080;2023-05-19T08:28:10;14.50;68.40
10133;DHT22;5106;50.926;7.080;2023-05-19T08:30:36;14.60;69.00
10133;DHT22;5106;50.926;7.080;2023-05-19T08:33:02;14.70;67.00
10133;DHT22;5106;50.926;7.080;2023-05-19T08:35:27;14.80;67.20
10133;DHT22;5106;50.926;7.080;2023-05-19T08:37:53;14.90;67.00
10133;DHT22;5106;50.926;7.080;2023-05-19T08:40:22;14.90;65.60
10133;DHT22;5106;50.926;7.080;2023-05-19T08:42:48;15.00;66.80
10133;DHT22;5106;50.926;7.080;2023-05-19T08:45:14;15.20;67.20
10133;DHT22;5106;50.926;7.080;2023-05-19T08:47:40;15.30;66.50
10133;DHT22;5106;50.926;7.080;2023-05-19T08:50:07;15.50;66.00
10133;DHT22;5106;50.926;7.080;2023-05-19T08:52:51;15.60;63.90
10133;DHT22;5106;50.926;7.080;2023-05-19T08:55:28;15.70;64.10
10133;DHT22;5106;50.926;7.080;2023-05-19T08:57:58;15.80;64.50
10133;DHT22;5106;50.926;7.080;2023-05-19T09:00:25;15.90;63.10
10133;DHT22;5106;50.926;7.080;2023-05-19T09:02:52;16.00;62.80
10133;DHT22;5106;50.926;7.080;2023-05-19T09:05:18;16.20;65.60
10133;DHT22;5106;50.926;7.080;2023-05-19T09:07:44;16.30;64.70
10133;DHT22;5106;50.926;7.080;2023-05-19T09:10:10;16.40;62.20
10133;DHT22;5106;50.926;7.080;2023-05-19T09:12:42;16.50;62.20
10133;DHT22;5106;50.926;7.080;2023-05-19T09:15:09;16.60;62.40
10133;DHT22;5106;50.926;7.080;2023-05-19T09:17:36;16.50;60.60
10133;DHT22;5106;50.926;7.080;2023-05-19T09:20:03;16.60;62.50
10133;DHT22;5106;50.926;7.080;2023-05-19T09:22:31;16.80;63.10
10133;DHT22;5106;50.926;7.080;2023-05-19T09:24:59;17.00;64.50
10133;DHT22;5106;50.926;7.080;2023-05-19T09:27:28;17.20;63.00
10133;DHT22;5106;50.926;7.080;2023-05-19T09:30:06;17.40;59.40
10133;DHT22;5106;50.926;7.080;2023-05-19T09:32:34;17.60;59.80
10133;DHT22;5106;50.926;7.080;2023-05-19T09:35:02;17.60;57.80
10133;DHT22;5106;50.926;7.080;2023-05-19T09:37:28;17.40;59.10
10133;DHT22;5106;50.926;7.080;2023-05-19T09:39:54;17.50;62.10
10133;DHT22;5106;50.926;7.080;2023-05-19T09:42:24;17.60;60.20
10133;DHT22;5106;50.926;7.080;2023-05-19T09:45:01;17.80;60.70
10133;DHT22;5106;50.926;7.080;2023-05-19T09:47:31;18.00;62.40
10133;DHT22;5106;50.926;7.080;2023-05-19T09:49:57;18.20;62.60
10133;DHT22;5106;50.926;7.080;2023-05-19T09:52:23;18.40;60.40
10133;DHT22;5106;50.926;7.080;2023-05-19T09:54:49;18.70;57.90
10133;DHT22;5106;50.926;7.080;2023-05-19T09:57:16;18.70;57.60
10133;DHT22;5106;50.926;7.080;2023-05-19T09:59:42;18.60;56.20
10133;DHT22;5106;50.926;7.080;2023-05-19T10:02:15;18.60;54.90
10133;DHT22;5106;50.926;7.080;2023-05-19T10:04:42;18.60;58.00
10133;DHT22;5106;50.926;7.080;2023-05-19T10:07:09;18.60;58.20
10133;DHT22;5106;50.926;7.080;2023-05-19T10:09:37;18.40;59.00
10133;DHT22;5106;50.926;7.080;2023-05-19T10:12:04;18.30;59.90
10133;DHT22;5106;50.926;7.080;2023-05-19T10:14:29;18.20;60.30
10133;DHT22;5106;50.926;7.080;2023-05-19T10:16:58;18.10;59.50
10133;DHT22;5106;50.926;7.080;2023-05-19T10:19:25;18.00;56.90
10133;DHT22;5106;50.926;7.080;2023-05-19T10:21:53;17.90;54.80
10133;DHT22;5106;50.926;7.080;2023-05-19T10:24:19;17.80;57.60
10133;DHT22;5106;50.926;7.080;2023-05-19T10:26:49;17.70;58.60
10133;DHT22;5106;50.926;7.080;2023-05-19T10:29:22;17.60;57.20
10133;DHT22;5106;50.926;7.080;2023-05-19T10:31:50;17.60;56.70
10133;DHT22;5106;50.926;7.080;2023-05-19T10:37:19;17.80;56.00
10133;DHT22;5106;50.926;7.080;2023-05-19T10:39:47;17.90;57.20
10133;DHT22;5106;50.926;7.080;2023-05-19T10:42:17;18.10;59.20
10133;DHT22;5106;50.926;7.080;2023-05-19T10:47:41;18.70;58.50
10133;DHT22;5106;50.926;7.080;2023-05-19T10:50:07;18.60;54.70
10133;DHT22;5106;50.926;7.080;2023-05-19T10:52:36;18.50;56.50
10133;DHT22;5106;50.926;7.080;2023-05-19T10:55:03;18.60;59.10
10133;DHT22;5106;50.926;7.080;2023-05-19T10:57:29;18.60;55.90
10133;DHT22;5106;50.926;7.080;2023-05-19T11:00:01;18.60;53.60
10133;DHT22;5106;50.926;7.080;2023-05-19T11:02:40;18.50;54.50
10133;DHT22;5106;50.926;7.080;2023-05-19T11:05:14;18.50;55.40
10133;DHT22;5106;50.926;7.080;2023-05-19T11:07:43;18.60;55.40
10133;DHT22;5106;50.926;7.080;2023-05-19T11:10:09;18.50;56.10
10133;DHT22;5106;50.926;7.080;2023-05-19T11:12:40;18.50;56.50
10133;DHT22;5106;50.926;7.080;2023-05-19T11:15:13;18.50;57.10
10133;DHT22;5106;50.926;7.080;2023-05-19T11:17:40;18.60;55.70
10133;DHT22;5106;50.926;7.080;2023-05-19T11:20:08;18.90;56.00
10133;DHT22;5106;50.926;7.080;2023-05-19T11:25:48;19.20;54.10
10133;DHT22;5106;50.926;7.080;2023-05-19T11:28:19;19.30;54.70
10133;DHT22;5106;50.926;7.080;2023-05-19T11:30:47;19.30;54.60
10133;DHT22;5106;50.926;7.080;2023-05-19T11:33:16;19.30;50.90
10133;DHT22;5106;50.926;7.080;2023-05-19T11:35:45;19.20;57.20
10133;DHT22;5106;50.926;7.080;2023-05-19T11:38:12;19.20;53.50
10133;DHT22;5106;50.926;7.080;2023-05-19T11:40:39;19.10;57.50
10133;DHT22;5106;50.926;7.080;2023-05-19T11:43:06;19.00;58.00
10133;DHT22;5106;50.926;7.080;2023-05-19T11:45:31;18.90;52.50
10133;DHT22;5106;50.926;7.080;2023-05-19T11:47:58;18.90;55.50
10133;DHT22;5106;50.926;7.080;2023-05-19T11:50:24;19.00;52.60
10133;DHT22;5106;50.926;7.080;2023-05-19T11:52:51;19.20;53.20
10133;DHT22;5106;50.926;7.080;2023-05-19T11:55:20;19.30;50.70
10133;DHT22;5106;50.926;7.080;2023-05-19T11:58:02;19.30;53.10
10133;DHT22;5106;50.926;7.080;2023-05-19T12:00:29;19.50;52.60
10133;DHT22;5106;50.926;7.080;2023-05-19T12:02:56;19.60;54.10
10133;DHT22;5106;50.926;7.080;2023-05-19T12:05:23;19.70;51.70
10133;DHT22;5106;50.926;7.080;2023-05-19T12:07:49;19.80;50.80
10133;DHT22;5106;50.926;7.080;2023-05-19T12:10:26;19.80;49.70
10133;DHT22;5106;50.926;7.080;2023-05-19T12:12:53;19.80;49.10
10133;DHT22;5106;50.926;7.080;2023-05-19T12:15:22;19.80;49.00
10133;DHT22;5106;50.926;7.080;2023-05-19T12:17:59;19.70;51.10
10133;DHT22;5106;50.926;7.080;2023-05-19T12:20:25;19.70;51.80
10133;DHT22;5106;50.926;7.080;2023-05-19T12:22:53;19.50;49.00
10133;DHT22;5106;50.926;7.080;2023-05-19T13:25:55;20.10;49.90
10133;DHT22;5106;50.926;7.080;2023-05-19T13:28:21;20.00;49.80
10133;DHT22;5106;50.926;7.080;2023-05-19T13:30:46;19.90;50.10
10133;DHT22;5106;50.926;7.080;2023-05-19T13:33:13;20.00;51.60
10133;DHT22;5106;50.926;7.080;2023-05-19T13:35:39;20.10;48.40
10133;DHT22;5106;50.926;7.080;2023-05-19T13:38:06;20.20;49.60
10133;DHT22;5106;50.926;7.080;2023-05-19T13:40:32;20.40;48.50
10133;DHT22;5106;50.926;7.080;2023-05-19T13:42:59;20.40;49.70
10133;DHT22;5106;50.926;7.080;2023-05-19T13:45:25;20.40;53.30
10133;DHT22;5106;50.926;7.080;2023-05-19T13:47:50;20.60;50.10
10133;DHT22;5106;50.926;7.080;2023-05-19T13:50:16;20.60;51.80
10133;DHT22;5106;50.926;7.080;2023-05-19T13:52:42;20.80;51.30
10133;DHT22;5106;50.926;7.080;2023-05-19T13:55:08;20.90;50.80
10133;DHT22;5106;50.926;7.080;2023-05-19T13:57:33;20.90;47.60
10133;DHT22;5106;50.926;7.080;2023-05-19T13:59:59;20.90;51.00
10133;DHT22;5106;50.926;7.080;2023-05-19T14:02:25;20.90;51.40
10133;DHT22;5106;50.926;7.080;2023-05-19T14:04:50;20.70;49.70
10133;DHT22;5106;50.926;7.080;2023-05-19T14:07:16;20.70;49.20
10133;DHT22;5106;50.926;7.080;2023-05-19T14:09:42;20.70;49.60
10133;DHT22;5106;50.926;7.080;2023-05-19T14:12:07;20.80;49.90
10133;DHT22;5106;50.926;7.080;2023-05-19T14:14:36;20.90;47.70
10133;DHT22;5106;50.926;7.080;2023-05-19T14:17:02;21.00;47.70
10133;DHT22;5106;50.926;7.080;2023-05-19T14:19:27;21.10;47.20
10133;DHT22;5106;50.926;7.080;2023-05-19T14:21:55;21.20;45.70
10133;DHT22;5106;50.926;7.080;2023-05-19T14:24:21;21.30;48.20
10133;DHT22;5106;50.926;7.080;2023-05-19T14:26:46;21.40;49.60
10133;DHT22;5106;50.926;7.080;2023-05-19T14:29:12;21.50;47.00
10133;DHT22;5106;50.926;7.080;2023-05-19T14:31:37;21.40;47.50
10133;DHT22;5106;50.926;7.080;2023-05-19T14:34:03;21.30;48.30
10133;DHT22;5106;50.926;7.080;2023-05-19T14:36:29;21.10;46.60
10133;DHT22;5106;50.926;7.080;2023-05-19T14:38:55;20.90;46.10
10133;DHT22;5106;50.926;7.080;2023-05-19T14:41:21;20.70;49.00
10133;DHT22;5106;50.926;7.080;2023-05-19T14:43:47;20.60;49.70
10133;DHT22;5106;50.926;7.080;2023-05-19T14:46:12;20.60;50.20
10133;DHT22;5106;50.926;7.080;2023-05-19T14:48:38;20.60;47.90
10133;DHT22;5106;50.926;7.080;2023-05-19T14:51:03;20.80;49.80
10133;DHT22;5106;50.926;7.080;2023-05-19T14:53:29;21.10;49.70
10133;DHT22;5106;50.926;7.080;2023-05-19T14:55:54;21.30;47.40
10133;DHT22;5106;50.926;7.080;2023-05-19T14:58:20;21.30;46.80
10133;DHT22;5106;50.926;7.080;2023-05-19T15:00:46;21.30;49.20
10133;DHT22;5106;50.926;7.080;2023-05-19T15:03:12;21.30;46.70
10133;DHT22;5106;50.926;7.080;2023-05-19T15:05:37;21.40;48.60
10133;DHT22;5106;50.926;7.080;2023-05-19T15:08:05;21.40;47.20
10133;DHT22;5106;50.926;7.080;2023-05-19T16:30:58;21.90;44.10
10133;DHT22;5106;50.926;7.080;2023-05-19T16:35:59;21.80;44.80
10133;DHT22;5106;50.926;7.080;2023-05-19T16:38:25;21.80;45.20
10133;DHT22;5106;50.926;7.080;2023-05-19T16:40:51;21.90;45.10
10133;DHT22;5106;50.926;7.080;2023-05-19T16:43:16;22.00;46.10
10133;DHT22;5106;50.926;7.080;2023-05-19T16:45:42;21.80;43.70
10133;DHT22;5106;50.926;7.080;2023-05-19T16:48:08;21.60;44.00
10133;DHT22;5106;50.926;7.080;2023-05-19T16:50:34;21.40;44.80
10133;DHT22;5106;50.926;7.080;2023-05-19T16:52:59;21.20;45.90
10133;DHT22;5106;50.926;7.080;2023-05-19T16:55:26;21.10;45.60
10133;DHT22;5106;50.926;7.080;2023-05-19T16:57:51;20.90;46.20
10133;DHT22;5106;50.926;7.080;2023-05-19T17:00:17;20.80;46.10
10133;DHT22;5106;50.926;7.080;2023-05-19T17:02:43;20.70;46.60
10133;DHT22;5106;50.926;7.080;2023-05-19T17:05:08;20.50;46.70
10133;DHT22;5106;50.926;7.080;2023-05-19T17:07:34;20.40;47.20
10133;DHT22;5106;50.926;7.080;2023-05-19T17:09:59;20.20;47.20
10133;DHT22;5106;50.926;7.080;2023-05-19T17:12:25;20.10;48.30
10133;DHT22;5106;50.926;7.080;2023-05-19T17:14:51;20.00;48.00
10133;DHT22;5106;50.926;7.080;2023-05-19T17:17:17;20.00;48.60
10133;DHT22;5106;50.926;7.080;2023-05-19T17:19:42;19.90;48.40
10133;DHT22;5106;50.926;7.080;2023-05-19T17:22:08;19.80;48.80
10133;DHT22;5106;50.926;7.080;2023-05-19T17:24:34;19.80;49.20
10133;DHT22;5106;50.926;7.080;2023-05-19T17:26:59;19.70;49.60
10133;DHT22;5106;50.926;7.080;2023-05-19T17:29:26;19.60;53.50
10133;DHT22;5106;50.926;7.080;2023-05-19T17:31:53;19.50;50.70
10133;DHT22;5106;50.926;7.080;2023-05-19T17:34:19;19.40;51.20
10133;DHT22;5106;50.926;7.080;2023-05-19T17:36:45;19.40;51.30
10133;DHT22;5106;50.926;7.080;2023-05-19T17:39:11;19.30;53.80
10133;DHT22;5106;50.926;7.080;2023-05-19T17:41:36;19.30;53.00
10133;DHT22;5106;50.926;7.080;2023-05-19T17:44:04;19.30;51.10
10133;DHT22;5106;50.926;7.080;2023-05-19T17:46:31;19.40;50.50
10133;DHT22;5106;50.926;7.080;2023-05-19T17:49:01;19.40;52.00
10133;DHT22;5106;50.926;7.080;2023-05-19T17:51:27;19.50;49.90
10133;DHT22;5106;50.926;7.080;2023-05-19T17:53:53;19.50;50.10
10133;DHT22;5106;50.926;7.080;2023-05-19T17:56:19;19.60;49.80
10133;DHT22;5106;50.926;7.080;2023-05-19T17:58:47;19.60;49.90
10133;DHT22;5106;50.926;7.080;2023-05-19T18:01:17;19.60;49.80
10133;DHT22;5106;50.926;7.080;2023-05-19T18:03:43;19.60;50.00
10133;DHT22;5106;50.926;7.080;2023-05-19T18:06:17;19.60;50.20
10133;DHT22;5106;50.926;7.080;2023-05-19T18:08:46;19.50;51.10
10133;DHT22;5106;50.926;7.080;2023-05-19T18:11:16;19.50;51.00
10133;DHT22;5106;50.926;7.080;2023-05-19T18:13:42;19.50;51.60
10133;DHT22;5106;50.926;7.080;2023-05-19T18:16:08;19.50;51.30
10133;DHT22;5106;50.926;7.080;2023-05-19T18:18:34;19.40;51.40
10133;DHT22;5106;50.926;7.080;2023-05-19T18:21:02;19.40;51.90
10133;DHT22;5106;50.926;7.080;2023-05-19T18:23:27;19.40;53.00
10133;DHT22;5106;50.926;7.080;2023-05-19T18:25:53;19.30;51.60
10133;DHT22;5106;50.926;7.080;2023-05-19T18:28:18;19.20;52.20
10133;DHT22;5106;50.926;7.080;2023-05-19T18:30:44;19.10;52.90
10133;DHT22;5106;50.926;7.080;2023-05-19T18:33:10;19.10;52.30
10133;DHT22;5106;50.926;7.080;2023-05-19T18:35:36;19.00;52.80